sensor_id;sensor_type;location;lat;lon;timestamp;P1;durP1;ratioP1;P2;durP2;ratioP2
62435;SDS011;48480;50.252;18.848;2023-04-06T00:01:25;71.70;;;33.30;;
62435;SDS011;48480;50.252;18.848;2023-04-06T00:03:50;89.00;;;35.80;;
62435;SDS011;48480;50.252;18.848;2023-04-06T00:06:16;79.20;;;35.00;;
62435;SDS011;48480;50.252;18.848;2023-04-06T00:08:41;61.50;;;29.20;;
62435;SDS011;48480;50.252;18.848;2023-04-06T00:11:08;64.00;;;29.20;;
62435;SDS011;48480;50.252;18.848;2023-04-06T00:13:33;60.80;;;29.30;;
62435;SDS011;48480;50.252;18.848;2023-04-06T00:15:59;49.20;;;24.60;;
62435;SDS011;48480;50.252;18.848;2023-04-06T00:18:24;58.20;;;27.10;;
62435;SDS011;48480;50.252;18.848;2023-04-06T00:20:50;53.00;;;26.70;;
62435;SDS011;48480;50.252;18.848;2023-04-06T00:23:16;53.20;;;26.40;;
62435;SDS011;48480;50.252;18.848;2023-04-06T00:25:41;48.90;;;25.20;;
62435;SDS011;48480;50.252;18.848;2023-04-06T00:28:07;49.80;;;24.30;;
62435;SDS011;48480;50.252;18.848;2023-04-06T00:30:32;53.40;;;24.70;;
62435;SDS011;48480;50.252;18.848;2023-04-06T00:32:58;56.80;;;25.40;;
62435;SDS011;48480;50.252;18.848;2023-04-06T00:35:24;56.30;;;26.80;;
62435;SDS011;48480;50.252;18.848;2023-04-06T00:37:49;47.90;;;21.60;;
62435;SDS011;48480;50.252;18.848;2023-04-06T00:40:15;60.70;;;28.00;;
62435;SDS011;48480;50.252;18.848;2023-04-06T00:42:41;53.50;;;23.60;;
62435;SDS011;48480;50.252;18.848;2023-04-06T00:45:06;56.00;;;26.60;;
62435;SDS011;48480;50.252;18.848;2023-04-06T00:47:32;65.00;;;28.60;;
62435;SDS011;48480;50.252;18.848;2023-04-06T00:49:58;57.80;;;27.20;;
62435;SDS011;48480;50.252;18.848;2023-04-06T00:52:24;52.60;;;26.20;;
62435;SDS011;48480;50.252;18.848;2023-04-06T00:54:50;53.30;;;26.30;;
62435;SDS011;48480;50.252;18.848;2023-04-06T00:57:16;56.70;;;26.60;;
62435;SDS011;48480;50.252;18.848;2023-04-06T00:59:42;56.50;;;27.00;;
62435;SDS011;48480;50.252;18.848;2023-04-06T01:02:09;56.50;;;26.80;;
62435;SDS011;48480;50.252;18.848;2023-04-06T01:04:34;55.50;;;25.30;;
62435;SDS011;48480;50.252;18.848;2023-04-06T01:07:00;47.90;;;24.90;;
62435;SDS011;48480;50.252;18.848;2023-04-06T01:09:28;53.20;;;27.10;;
62435;SDS011;48480;50.252;18.848;2023-04-06T01:11:56;57.00;;;26.30;;
62435;SDS011;48480;50.252;18.848;2023-04-06T01:14:23;56.30;;;27.00;;
62435;SDS011;48480;50.252;18.848;2023-04-06T01:16:49;49.30;;;25.90;;
62435;SDS011;48480;50.252;18.848;2023-04-06T01:19:14;64.90;;;29.00;;
62435;SDS011;48480;50.252;18.848;2023-04-06T01:21:40;82.60;;;35.70;;
62435;SDS011;48480;50.252;18.848;2023-04-06T01:24:06;93.80;;;35.60;;
62435;SDS011;48480;50.252;18.848;2023-04-06T01:26:33;98.30;;;37.40;;
62435;SDS011;48480;50.252;18.848;2023-04-06T01:29:00;90.70;;;37.30;;
62435;SDS011;48480;50.252;18.848;2023-04-06T01:31:27;96.10;;;39.20;;
62435;SDS011;48480;50.252;18.848;2023-04-06T01:33:52;84.20;;;35.70;;
62435;SDS011;48480;50.252;18.848;2023-04-06T01:36:18;79.80;;;31.70;;
62435;SDS011;48480;50.252;18.848;2023-04-06T01:38:44;75.70;;;32.80;;
62435;SDS011;48480;50.252;18.848;2023-04-06T01:41:10;72.10;;;30.20;;
62435;SDS011;48480;50.252;18.848;2023-04-06T01:43:35;71.80;;;30.50;;
62435;SDS011;48480;50.252;18.848;2023-04-06T01:46:01;73.60;;;31.90;;
62435;SDS011;48480;50.252;18.848;2023-04-06T01:48:26;71.10;;;28.60;;
62435;SDS011;48480;50.252;18.848;2023-04-06T01:50:52;70.90;;;29.90;;
62435;SDS011;48480;50.252;18.848;2023-04-06T01:53:18;64.10;;;30.10;;
62435;SDS011;48480;50.252;18.848;2023-04-06T01:55:44;68.30;;;30.80;;
62435;SDS011;48480;50.252;18.848;2023-04-06T01:58:10;70.90;;;29.70;;
62435;SDS011;48480;50.252;18.848;2023-04-06T02:00:36;66.10;;;27.10;;
62435;SDS011;48480;50.252;18.848;2023-04-06T02:03:01;60.70;;;26.70;;
62435;SDS011;48480;50.252;18.848;2023-04-06T02:05:28;63.90;;;27.10;;
62435;SDS011;48480;50.252;18.848;2023-04-06T02:07:55;62.10;;;27.00;;
62435;SDS011;48480;50.252;18.848;2023-04-06T02:10:21;51.90;;;23.90;;
62435;SDS011;48480;50.252;18.848;2023-04-06T02:12:47;60.70;;;26.80;;
62435;SDS011;48480;50.252;18.848;2023-04-06T02:15:13;64.50;;;24.80;;
62435;SDS011;48480;50.252;18.848;2023-04-06T02:17:38;59.70;;;26.10;;
62435;SDS011;48480;50.252;18.848;2023-04-06T02:20:05;57.40;;;26.70;;
62435;SDS011;48480;50.252;18.848;2023-04-06T02:22:31;60.30;;;27.40;;
62435;SDS011;48480;50.252;18.848;2023-04-06T02:24:56;63.10;;;27.80;;
62435;SDS011;48480;50.252;18.848;2023-04-06T02:27:22;72.70;;;31.40;;
62435;SDS011;48480;50.252;18.848;2023-04-06T02:29:48;71.50;;;30.20;;
62435;SDS011;48480;50.252;18.848;2023-04-06T02:32:13;71.40;;;30.10;;
62435;SDS011;48480;50.252;18.848;2023-04-06T02:34:39;66.70;;;31.30;;
62435;SDS011;48480;50.252;18.848;2023-04-06T02:37:04;69.40;;;30.10;;
62435;SDS011;48480;50.252;18.848;2023-04-06T02:39:29;64.50;;;30.60;;
62435;SDS011;48480;50.252;18.848;2023-04-06T02:41:55;54.20;;;27.10;;
62435;SDS011;48480;50.252;18.848;2023-04-06T02:44:22;53.40;;;25.00;;
62435;SDS011;48480;50.252;18.848;2023-04-06T02:46:47;51.20;;;25.60;;
62435;SDS011;48480;50.252;18.848;2023-04-06T02:49:13;55.90;;;28.20;;
62435;SDS011;48480;50.252;18.848;2023-04-06T02:51:38;66.10;;;30.80;;
62435;SDS011;48480;50.252;18.848;2023-04-06T02:54:04;79.00;;;35.80;;
62435;SDS011;48480;50.252;18.848;2023-04-06T02:56:29;87.80;;;38.50;;
62435;SDS011;48480;50.252;18.848;2023-04-06T02:58:55;90.40;;;39.70;;
62435;SDS011;48480;50.252;18.848;2023-04-06T03:01:21;92.30;;;39.40;;
62435;SDS011;48480;50.252;18.848;2023-04-06T03:03:46;78.30;;;33.70;;
62435;SDS011;48480;50.252;18.848;2023-04-06T03:06:12;65.40;;;32.20;;
62435;SDS011;48480;50.252;18.848;2023-04-06T03:08:37;72.30;;;34.40;;
62435;SDS011;48480;50.252;18.848;2023-04-06T03:11:03;64.60;;;32.00;;
62435;SDS011;48480;50.252;18.848;2023-04-06T03:13:28;64.10;;;29.50;;
62435;SDS011;48480;50.252;18.848;2023-04-06T03:15:54;57.70;;;27.30;;
62435;SDS011;48480;50.252;18.848;2023-04-06T03:18:23;56.20;;;26.40;;
62435;SDS011;48480;50.252;18.848;2023-04-06T03:20:50;54.50;;;24.00;;
62435;SDS011;48480;50.252;18.848;2023-04-06T03:23:21;51.30;;;24.30;;
62435;SDS011;48480;50.252;18.848;2023-04-06T03:25:47;43.60;;;21.80;;
62435;SDS011;48480;50.252;18.848;2023-04-06T03:28:12;39.90;;;21.20;;
62435;SDS011;48480;50.252;18.848;2023-04-06T03:30:38;44.80;;;24.00;;
62435;SDS011;48480;50.252;18.848;2023-04-06T03:33:03;54.10;;;26.70;;
62435;SDS011;48480;50.252;18.848;2023-04-06T03:35:29;57.50;;;28.50;;
62435;SDS011;48480;50.252;18.848;2023-04-06T03:37:54;62.20;;;29.20;;
62435;SDS011;48480;50.252;18.848;2023-04-06T03:40:20;58.90;;;28.30;;
62435;SDS011;48480;50.252;18.848;2023-04-06T03:42:46;69.70;;;32.50;;
62435;SDS011;48480;50.252;18.848;2023-04-06T03:45:11;75.00;;;35.00;;
62435;SDS011;48480;50.252;18.848;2023-04-06T03:47:38;76.60;;;35.00;;
62435;SDS011;48480;50.252;18.848;2023-04-06T03:50:04;56.80;;;29.90;;
62435;SDS011;48480;50.252;18.848;2023-04-06T03:52:30;59.50;;;27.70;;
62435;SDS011;48480;50.252;18.848;2023-04-06T03:54:55;62.90;;;29.70;;
62435;SDS011;48480;50.252;18.848;2023-04-06T03:57:21;66.50;;;30.20;;
62435;SDS011;48480;50.252;18.848;2023-04-06T03:59:46;63.60;;;30.20;;
62435;SDS011;48480;50.252;18.848;2023-04-06T04:02:11;66.80;;;33.30;;
62435;SDS011;48480;50.252;18.848;2023-04-06T04:04:37;67.90;;;30.60;;
62435;SDS011;48480;50.252;18.848;2023-04-06T04:07:03;62.90;;;32.60;;
62435;SDS011;48480;50.252;18.848;2023-04-06T04:09:28;68.00;;;33.00;;
62435;SDS011;48480;50.252;18.848;2023-04-06T04:11:54;75.10;;;33.50;;
62435;SDS011;48480;50.252;18.848;2023-04-06T04:14:19;64.90;;;28.40;;
62435;SDS011;48480;50.252;18.848;2023-04-06T04:16:45;67.10;;;32.80;;
62435;SDS011;48480;50.252;18.848;2023-04-06T04:19:10;69.90;;;32.20;;
62435;SDS011;48480;50.252;18.848;2023-04-06T04:21:42;72.10;;;34.20;;
62435;SDS011;48480;50.252;18.848;2023-04-06T04:24:10;70.60;;;32.50;;
62435;SDS011;48480;50.252;18.848;2023-04-06T04:26:35;70.50;;;35.20;;
62435;SDS011;48480;50.252;18.848;2023-04-06T04:29:02;81.20;;;36.30;;
62435;SDS011;48480;50.252;18.848;2023-04-06T04:31:27;82.40;;;37.50;;
62435;SDS011;48480;50.252;18.848;2023-04-06T04:33:53;84.10;;;37.50;;
62435;SDS011;48480;50.252;18.848;2023-04-06T04:36:18;78.50;;;36.70;;
62435;SDS011;48480;50.252;18.848;2023-04-06T04:38:44;60.60;;;30.20;;
62435;SDS011;48480;50.252;18.848;2023-04-06T04:41:09;63.10;;;30.50;;
62435;SDS011;48480;50.252;18.848;2023-04-06T04:43:35;66.20;;;31.90;;
62435;SDS011;48480;50.252;18.848;2023-04-06T04:46:00;72.50;;;35.00;;
62435;SDS011;48480;50.252;18.848;2023-04-06T04:48:26;75.80;;;34.60;;
62435;SDS011;48480;50.252;18.848;2023-04-06T04:50:52;59.30;;;29.80;;
62435;SDS011;48480;50.252;18.848;2023-04-06T04:53:17;66.80;;;31.30;;
62435;SDS011;48480;50.252;18.848;2023-04-06T04:55:43;71.40;;;33.80;;
62435;SDS011;48480;50.252;18.848;2023-04-06T04:58:08;65.50;;;32.10;;
62435;SDS011;48480;50.252;18.848;2023-04-06T05:00:36;66.80;;;33.40;;
62435;SDS011;48480;50.252;18.848;2023-04-06T05:03:02;62.60;;;31.30;;
62435;SDS011;48480;50.252;18.848;2023-04-06T05:05:30;62.30;;;32.00;;
62435;SDS011;48480;50.252;18.848;2023-04-06T05:07:56;68.70;;;33.50;;
62435;SDS011;48480;50.252;18.848;2023-04-06T05:10:21;74.60;;;36.90;;
62435;SDS011;48480;50.252;18.848;2023-04-06T05:12:47;78.90;;;37.80;;
62435;SDS011;48480;50.252;18.848;2023-04-06T05:15:12;76.20;;;36.30;;
62435;SDS011;48480;50.252;18.848;2023-04-06T05:17:38;68.30;;;33.70;;
62435;SDS011;48480;50.252;18.848;2023-04-06T05:20:04;77.30;;;36.60;;
62435;SDS011;48480;50.252;18.848;2023-04-06T05:22:30;82.20;;;38.50;;
62435;SDS011;48480;50.252;18.848;2023-04-06T05:24:56;77.00;;;37.80;;
62435;SDS011;48480;50.252;18.848;2023-04-06T05:27:21;97.80;;;43.00;;
62435;SDS011;48480;50.252;18.848;2023-04-06T05:29:47;89.70;;;40.90;;
62435;SDS011;48480;50.252;18.848;2023-04-06T05:32:12;87.90;;;44.00;;
62435;SDS011;48480;50.252;18.848;2023-04-06T05:34:37;91.10;;;46.10;;
62435;SDS011;48480;50.252;18.848;2023-04-06T05:37:03;104.20;;;49.70;;
62435;SDS011;48480;50.252;18.848;2023-04-06T05:39:28;100.80;;;48.10;;
62435;SDS011;48480;50.252;18.848;2023-04-06T05:41:54;101.50;;;51.40;;
62435;SDS011;48480;50.252;18.848;2023-04-06T05:44:20;112.60;;;53.00;;
62435;SDS011;48480;50.252;18.848;2023-04-06T05:46:45;120.10;;;55.60;;
62435;SDS011;48480;50.252;18.848;2023-04-06T05:49:11;125.30;;;56.80;;
62435;SDS011;48480;50.252;18.848;2023-04-06T05:51:37;125.70;;;61.10;;
62435;SDS011;48480;50.252;18.848;2023-04-06T05:54:03;121.50;;;59.40;;
62435;SDS011;48480;50.252;18.848;2023-04-06T05:56:28;139.10;;;61.50;;
62435;SDS011;48480;50.252;18.848;2023-04-06T05:58:55;140.80;;;62.80;;
62435;SDS011;48480;50.252;18.848;2023-04-06T06:01:20;126.80;;;57.90;;
62435;SDS011;48480;50.252;18.848;2023-04-06T06:03:46;125.40;;;58.90;;
62435;SDS011;48480;50.252;18.848;2023-04-06T06:06:11;130.60;;;62.90;;
62435;SDS011;48480;50.252;18.848;2023-04-06T06:08:37;126.00;;;59.90;;
62435;SDS011;48480;50.252;18.848;2023-04-06T06:11:05;135.40;;;62.80;;
62435;SDS011;48480;50.252;18.848;2023-04-06T06:13:31;140.20;;;61.00;;
62435;SDS011;48480;50.252;18.848;2023-04-06T06:15:57;143.30;;;67.30;;
62435;SDS011;48480;50.252;18.848;2023-04-06T06:18:22;169.40;;;73.80;;
62435;SDS011;48480;50.252;18.848;2023-04-06T06:20:48;167.10;;;76.10;;
62435;SDS011;48480;50.252;18.848;2023-04-06T06:23:13;171.10;;;75.60;;
62435;SDS011;48480;50.252;18.848;2023-04-06T06:25:39;159.60;;;70.40;;
62435;SDS011;48480;50.252;18.848;2023-04-06T06:28:04;165.90;;;70.80;;
62435;SDS011;48480;50.252;18.848;2023-04-06T06:30:30;131.40;;;58.10;;
62435;SDS011;48480;50.252;18.848;2023-04-06T06:32:55;145.40;;;64.30;;
62435;SDS011;48480;50.252;18.848;2023-04-06T06:35:20;166.80;;;72.30;;
62435;SDS011;48480;50.252;18.848;2023-04-06T06:37:46;153.70;;;71.40;;
62435;SDS011;48480;50.252;18.848;2023-04-06T06:40:11;168.70;;;79.90;;
62435;SDS011;48480;50.252;18.848;2023-04-06T06:42:38;161.00;;;72.90;;
62435;SDS011;48480;50.252;18.848;2023-04-06T06:45:05;148.90;;;71.10;;
62435;SDS011;48480;50.252;18.848;2023-04-06T06:47:32;146.50;;;69.70;;
62435;SDS011;48480;50.252;18.848;2023-04-06T06:50:00;138.50;;;65.00;;
62435;SDS011;48480;50.252;18.848;2023-04-06T06:52:28;111.70;;;52.30;;
62435;SDS011;48480;50.252;18.848;2023-04-06T06:54:53;89.70;;;48.50;;
62435;SDS011;48480;50.252;18.848;2023-04-06T06:57:19;61.90;;;31.00;;
62435;SDS011;48480;50.252;18.848;2023-04-06T06:59:44;49.20;;;26.50;;
62435;SDS011;48480;50.252;18.848;2023-04-06T07:02:10;31.30;;;19.10;;
62435;SDS011;48480;50.252;18.848;2023-04-06T07:04:35;21.00;;;13.00;;
62435;SDS011;48480;50.252;18.848;2023-04-06T07:07:01;16.80;;;11.10;;
62435;SDS011;48480;50.252;18.848;2023-04-06T07:09:27;20.00;;;11.10;;
62435;SDS011;48480;50.252;18.848;2023-04-06T07:11:53;16.10;;;10.60;;
62435;SDS011;48480;50.252;18.848;2023-04-06T07:14:18;18.10;;;11.20;;
62435;SDS011;48480;50.252;18.848;2023-04-06T07:16:45;27.00;;;15.50;;
62435;SDS011;48480;50.252;18.848;2023-04-06T07:19:12;19.20;;;10.30;;
62435;SDS011;48480;50.252;18.848;2023-04-06T07:21:37;19.20;;;11.30;;
62435;SDS011;48480;50.252;18.848;2023-04-06T07:24:02;16.00;;;9.20;;
62435;SDS011;48480;50.252;18.848;2023-04-06T07:26:28;14.90;;;9.00;;
62435;SDS011;48480;50.252;18.848;2023-04-06T07:28:54;12.70;;;7.80;;
62435;SDS011;48480;50.252;18.848;2023-04-06T07:31:20;12.60;;;9.00;;
62435;SDS011;48480;50.252;18.848;2023-04-06T07:33:45;10.40;;;7.10;;
62435;SDS011;48480;50.252;18.848;2023-04-06T07:36:14;13.30;;;7.20;;
62435;SDS011;48480;50.252;18.848;2023-04-06T07:38:40;11.90;;;7.90;;
62435;SDS011;48480;50.252;18.848;2023-04-06T07:41:06;11.30;;;6.90;;
62435;SDS011;48480;50.252;18.848;2023-04-06T07:43:31;16.50;;;9.10;;
62435;SDS011;48480;50.252;18.848;2023-04-06T07:45:57;15.90;;;9.40;;
62435;SDS011;48480;50.252;18.848;2023-04-06T07:48:25;15.60;;;8.50;;
62435;SDS011;48480;50.252;18.848;2023-04-06T07:50:51;12.60;;;8.20;;
62435;SDS011;48480;50.252;18.848;2023-04-06T07:53:17;12.40;;;8.70;;
62435;SDS011;48480;50.252;18.848;2023-04-06T07:55:42;13.30;;;8.10;;
62435;SDS011;48480;50.252;18.848;2023-04-06T07:58:08;12.50;;;8.80;;
62435;SDS011;48480;50.252;18.848;2023-04-06T08:00:33;14.70;;;9.70;;
62435;SDS011;48480;50.252;18.848;2023-04-06T08:02:59;14.90;;;8.90;;
62435;SDS011;48480;50.252;18.848;2023-04-06T08:05:24;17.70;;;10.70;;
62435;SDS011;48480;50.252;18.848;2023-04-06T08:07:50;18.20;;;11.60;;
62435;SDS011;48480;50.252;18.848;2023-04-06T08:10:15;19.20;;;12.20;;
62435;SDS011;48480;50.252;18.848;2023-04-06T08:12:41;18.90;;;13.60;;
62435;SDS011;48480;50.252;18.848;2023-04-06T08:15:06;16.80;;;11.40;;
62435;SDS011;48480;50.252;18.848;2023-04-06T08:17:32;10.20;;;7.80;;
62435;SDS011;48480;50.252;18.848;2023-04-06T08:19:59;10.00;;;7.30;;
62435;SDS011;48480;50.252;18.848;2023-04-06T08:22:25;14.10;;;10.10;;
62435;SDS011;48480;50.252;18.848;2023-04-06T08:24:50;16.20;;;11.00;;
62435;SDS011;48480;50.252;18.848;2023-04-06T08:27:19;15.80;;;12.00;;
62435;SDS011;48480;50.252;18.848;2023-04-06T08:29:49;13.70;;;8.90;;
62435;SDS011;48480;50.252;18.848;2023-04-06T08:32:18;13.70;;;9.50;;
62435;SDS011;48480;50.252;18.848;2023-04-06T08:35:07;13.10;;;8.30;;
62435;SDS011;48480;50.252;18.848;2023-04-06T08:37:52;16.70;;;11.80;;
62435;SDS011;48480;50.252;18.848;2023-04-06T08:40:36;12.10;;;9.30;;
62435;SDS011;48480;50.252;18.848;2023-04-06T08:43:02;12.60;;;9.30;;
62435;SDS011;48480;50.252;18.848;2023-04-06T08:45:33;12.10;;;9.40;;
62435;SDS011;48480;50.252;18.848;2023-04-06T08:47:59;14.10;;;10.30;;
62435;SDS011;48480;50.252;18.848;2023-04-06T08:50:27;12.50;;;10.00;;
62435;SDS011;48480;50.252;18.848;2023-04-06T08:52:55;11.80;;;8.60;;
62435;SDS011;48480;50.252;18.848;2023-04-06T08:55:22;12.80;;;9.90;;
62435;SDS011;48480;50.252;18.848;2023-04-06T08:57:49;14.00;;;8.70;;
62435;SDS011;48480;50.252;18.848;2023-04-06T09:00:18;19.00;;;13.50;;
62435;SDS011;48480;50.252;18.848;2023-04-06T09:02:45;19.10;;;12.80;;
62435;SDS011;48480;50.252;18.848;2023-04-06T09:05:12;13.00;;;9.10;;
62435;SDS011;48480;50.252;18.848;2023-04-06T09:07:38;18.60;;;10.40;;
62435;SDS011;48480;50.252;18.848;2023-04-06T09:10:04;15.70;;;10.40;;
62435;SDS011;48480;50.252;18.848;2023-04-06T09:12:31;11.20;;;8.50;;
62435;SDS011;48480;50.252;18.848;2023-04-06T09:14:59;12.60;;;8.50;;
62435;SDS011;48480;50.252;18.848;2023-04-06T09:17:26;12.00;;;8.20;;
62435;SDS011;48480;50.252;18.848;2023-04-06T09:19:57;14.70;;;11.20;;
62435;SDS011;48480;50.252;18.848;2023-04-06T09:22:23;22.40;;;12.30;;
62435;SDS011;48480;50.252;18.848;2023-04-06T09:24:51;13.10;;;9.50;;
62435;SDS011;48480;50.252;18.848;2023-04-06T09:27:39;14.00;;;9.30;;
62435;SDS011;48480;50.252;18.848;2023-04-06T09:30:05;12.40;;;9.20;;
62435;SDS011;48480;50.252;18.848;2023-04-06T09:32:43;13.50;;;9.10;;
62435;SDS011;48480;50.252;18.848;2023-04-06T09:35:15;16.10;;;9.00;;
62435;SDS011;48480;50.252;18.848;2023-04-06T09:37:42;10.40;;;8.30;;
62435;SDS011;48480;50.252;18.848;2023-04-06T09:40:09;14.50;;;10.00;;
62435;SDS011;48480;50.252;18.848;2023-04-06T09:42:35;18.00;;;10.80;;
62435;SDS011;48480;50.252;18.848;2023-04-06T09:45:02;13.80;;;9.50;;
62435;SDS011;48480;50.252;18.848;2023-04-06T09:47:28;16.60;;;10.50;;
62435;SDS011;48480;50.252;18.848;2023-04-06T09:49:56;11.10;;;8.60;;
62435;SDS011;48480;50.252;18.848;2023-04-06T09:52:27;13.70;;;8.40;;
62435;SDS011;48480;50.252;18.848;2023-04-06T09:55:03;10.60;;;7.90;;
62435;SDS011;48480;50.252;18.848;2023-04-06T10:00:07;10.90;;;8.50;;
62435;SDS011;48480;50.252;18.848;2023-04-06T10:07:59;12.30;;;7.90;;
62435;SDS011;48480;50.252;18.848;2023-04-06T10:10:32;14.20;;;8.90;;
62435;SDS011;48480;50.252;18.848;2023-04-06T10:12:59;13.20;;;8.90;;
62435;SDS011;48480;50.252;18.848;2023-04-06T10:15:30;13.60;;;9.30;;
62435;SDS011;48480;50.252;18.848;2023-04-06T10:17:57;13.70;;;8.10;;
62435;SDS011;48480;50.252;18.848;2023-04-06T10:25:55;13.50;;;9.60;;
62435;SDS011;48480;50.252;18.848;2023-04-06T10:28:22;12.00;;;8.20;;
62435;SDS011;48480;50.252;18.848;2023-04-06T10:30:49;12.80;;;10.00;;
62435;SDS011;48480;50.252;18.848;2023-04-06T10:33:22;11.50;;;8.90;;
62435;SDS011;48480;50.252;18.848;2023-04-06T10:35:47;11.90;;;10.20;;
62435;SDS011;48480;50.252;18.848;2023-04-06T10:38:13;12.90;;;9.30;;
62435;SDS011;48480;50.252;18.848;2023-04-06T10:40:40;16.50;;;9.50;;
62435;SDS011;48480;50.252;18.848;2023-04-06T10:43:18;11.10;;;8.10;;
62435;SDS011;48480;50.252;18.848;2023-04-06T10:45:54;10.70;;;8.50;;
62435;SDS011;48480;50.252;18.848;2023-04-06T10:48:21;12.40;;;8.60;;
62435;SDS011;48480;50.252;18.848;2023-04-06T10:50:57;13.50;;;9.30;;
62435;SDS011;48480;50.252;18.848;2023-04-06T10:53:33;11.50;;;7.90;;
62435;SDS011;48480;50.252;18.848;2023-04-06T10:56:04;11.70;;;8.50;;
62435;SDS011;48480;50.252;18.848;2023-04-06T10:58:50;12.50;;;7.60;;
62435;SDS011;48480;50.252;18.848;2023-04-06T11:01:18;11.00;;;7.30;;
62435;SDS011;48480;50.252;18.848;2023-04-06T11:03:48;11.60;;;7.80;;
62435;SDS011;48480;50.252;18.848;2023-04-06T11:06:33;11.90;;;8.50;;
62435;SDS011;48480;50.252;18.848;2023-04-06T11:09:04;9.30;;;7.00;;
62435;SDS011;48480;50.252;18.848;2023-04-06T11:11:34;16.10;;;9.30;;
62435;SDS011;48480;50.252;18.848;2023-04-06T11:14:11;13.40;;;9.80;;
62435;SDS011;48480;50.252;18.848;2023-04-06T11:16:37;12.80;;;8.30;;
62435;SDS011;48480;50.252;18.848;2023-04-06T11:19:08;13.10;;;9.30;;
62435;SDS011;48480;50.252;18.848;2023-04-06T11:24:14;12.90;;;8.90;;
62435;SDS011;48480;50.252;18.848;2023-04-06T11:26:53;11.00;;;7.40;;
62435;SDS011;48480;50.252;18.848;2023-04-06T11:29:33;13.40;;;8.40;;
62435;SDS011;48480;50.252;18.848;2023-04-06T11:32:05;13.20;;;8.50;;
62435;SDS011;48480;50.252;18.848;2023-04-06T11:34:33;13.20;;;8.70;;
62435;SDS011;48480;50.252;18.848;2023-04-06T11:37:17;13.70;;;8.50;;
62435;SDS011;48480;50.252;18.848;2023-04-06T11:43:10;9.90;;;6.30;;
62435;SDS011;48480;50.252;18.848;2023-04-06T11:45:41;9.80;;;6.90;;
62435;SDS011;48480;50.252;18.848;2023-04-06T11:48:17;14.70;;;8.00;;
62435;SDS011;48480;50.252;18.848;2023-04-06T11:50:39;12.60;;;6.90;;
62435;SDS011;48480;50.252;18.848;2023-04-06T11:53:28;11.30;;;7.80;;
62435;SDS011;48480;50.252;18.848;2023-04-06T11:56:22;8.90;;;6.50;;
62435;SDS011;48480;50.252;18.848;2023-04-06T11:58:57;8.40;;;6.10;;
62435;SDS011;48480;50.252;18.848;2023-04-06T12:01:26;7.50;;;5.00;;
62435;SDS011;48480;50.252;18.848;2023-04-06T12:04:01;10.90;;;6.00;;
62435;SDS011;48480;50.252;18.848;2023-04-06T12:06:27;7.50;;;5.10;;
62435;SDS011;48480;50.252;18.848;2023-04-06T12:08:52;10.30;;;5.90;;
62435;SDS011;48480;50.252;18.848;2023-04-06T12:11:18;12.10;;;7.40;;
62435;SDS011;48480;50.252;18.848;2023-04-06T12:13:48;11.10;;;7.60;;
62435;SDS011;48480;50.252;18.848;2023-04-06T12:16:14;14.20;;;8.70;;
62435;SDS011;48480;50.252;18.848;2023-04-06T12:18:40;12.20;;;7.10;;
62435;SDS011;48480;50.252;18.848;2023-04-06T12:21:06;12.70;;;8.20;;
62435;SDS011;48480;50.252;18.848;2023-04-06T12:23:32;12.90;;;9.40;;
62435;SDS011;48480;50.252;18.848;2023-04-06T12:25:57;17.10;;;10.50;;
62435;SDS011;48480;50.252;18.848;2023-04-06T12:28:23;8.80;;;5.90;;
62435;SDS011;48480;50.252;18.848;2023-04-06T12:30:52;9.20;;;6.90;;
62435;SDS011;48480;50.252;18.848;2023-04-06T12:33:17;10.20;;;7.70;;
62435;SDS011;48480;50.252;18.848;2023-04-06T12:35:46;11.60;;;7.50;;
62435;SDS011;48480;50.252;18.848;2023-04-06T12:38:12;14.10;;;9.10;;
62435;SDS011;48480;50.252;18.848;2023-04-06T12:40:37;11.60;;;6.80;;
62435;SDS011;48480;50.252;18.848;2023-04-06T12:43:04;9.60;;;6.40;;
62435;SDS011;48480;50.252;18.848;2023-04-06T12:45:31;9.80;;;6.20;;
62435;SDS011;48480;50.252;18.848;2023-04-06T12:47:57;10.30;;;7.00;;
62435;SDS011;48480;50.252;18.848;2023-04-06T12:50:23;9.70;;;6.30;;
62435;SDS011;48480;50.252;18.848;2023-04-06T12:52:49;9.80;;;6.80;;
62435;SDS011;48480;50.252;18.848;2023-04-06T12:55:15;10.20;;;5.70;;
62435;SDS011;48480;50.252;18.848;2023-04-06T12:57:41;10.60;;;6.50;;
62435;SDS011;48480;50.252;18.848;2023-04-06T13:00:07;8.50;;;6.50;;
62435;SDS011;48480;50.252;18.848;2023-04-06T13:02:33;8.60;;;6.30;;
62435;SDS011;48480;50.252;18.848;2023-04-06T13:04:59;9.50;;;6.30;;
62435;SDS011;48480;50.252;18.848;2023-04-06T13:07:25;9.10;;;6.10;;
62435;SDS011;48480;50.252;18.848;2023-04-06T13:09:51;9.80;;;6.50;;
62435;SDS011;48480;50.252;18.848;2023-04-06T13:12:17;12.40;;;7.90;;
62435;SDS011;48480;50.252;18.848;2023-04-06T13:14:43;15.90;;;9.00;;
62435;SDS011;48480;50.252;18.848;2023-04-06T13:17:08;17.00;;;9.80;;
62435;SDS011;48480;50.252;18.848;2023-04-06T13:19:34;14.70;;;9.70;;
62435;SDS011;48480;50.252;18.848;2023-04-06T13:22:00;10.40;;;7.30;;
62435;SDS011;48480;50.252;18.848;2023-04-06T13:24:26;11.10;;;7.90;;
62435;SDS011;48480;50.252;18.848;2023-04-06T13:26:51;19.30;;;11.40;;
62435;SDS011;48480;50.252;18.848;2023-04-06T13:29:17;11.60;;;8.20;;
62435;SDS011;48480;50.252;18.848;2023-04-06T13:31:42;12.70;;;8.80;;
62435;SDS011;48480;50.252;18.848;2023-04-06T13:34:08;13.20;;;10.00;;
62435;SDS011;48480;50.252;18.848;2023-04-06T13:36:34;14.50;;;10.30;;
62435;SDS011;48480;50.252;18.848;2023-04-06T13:38:59;16.10;;;10.60;;
62435;SDS011;48480;50.252;18.848;2023-04-06T13:41:25;19.10;;;12.20;;
62435;SDS011;48480;50.252;18.848;2023-04-06T13:43:52;15.20;;;10.10;;
62435;SDS011;48480;50.252;18.848;2023-04-06T13:46:18;14.60;;;10.70;;
62435;SDS011;48480;50.252;18.848;2023-04-06T13:48:43;14.80;;;9.80;;
62435;SDS011;48480;50.252;18.848;2023-04-06T13:53:35;13.50;;;9.60;;
62435;SDS011;48480;50.252;18.848;2023-04-06T13:56:01;14.70;;;10.40;;
62435;SDS011;48480;50.252;18.848;2023-04-06T13:58:26;15.30;;;9.80;;
62435;SDS011;48480;50.252;18.848;2023-04-06T14:00:52;14.60;;;9.30;;
62435;SDS011;48480;50.252;18.848;2023-04-06T14:03:18;12.50;;;9.00;;
62435;SDS011;48480;50.252;18.848;2023-04-06T14:05:44;12.00;;;8.10;;
62435;SDS011;48480;50.252;18.848;2023-04-06T14:08:10;11.50;;;7.40;;
62435;SDS011;48480;50.252;18.848;2023-04-06T14:10:37;13.80;;;8.90;;
62435;SDS011;48480;50.252;18.848;2023-04-06T14:13:07;12.10;;;7.60;;
62435;SDS011;48480;50.252;18.848;2023-04-06T14:15:32;13.50;;;8.80;;
62435;SDS011;48480;50.252;18.848;2023-04-06T14:17:59;13.90;;;8.20;;
62435;SDS011;48480;50.252;18.848;2023-04-06T14:20:25;12.60;;;8.40;;
62435;SDS011;48480;50.252;18.848;2023-04-06T14:22:51;13.90;;;9.70;;
62435;SDS011;48480;50.252;18.848;2023-04-06T14:25:17;11.50;;;7.70;;
62435;SDS011;48480;50.252;18.848;2023-04-06T14:27:43;11.20;;;6.90;;
62435;SDS011;48480;50.252;18.848;2023-04-06T14:30:09;10.50;;;6.40;;
62435;SDS011;48480;50.252;18.848;2023-04-06T14:32:36;13.80;;;8.30;;
62435;SDS011;48480;50.252;18.848;2023-04-06T14:35:02;14.00;;;9.40;;